createdAt,value
2023-03-19T00:00:29.643Z,75.36
2023-03-19T00:02:56.548Z,74.35
2023-03-19T00:05:23.367Z,73.79
2023-03-19T00:07:50.124Z,74.06
2023-03-19T00:10:16.893Z,73.34
2023-03-19T00:12:43.631Z,74.61
2023-03-19T00:15:14.451Z,75.32
2023-03-19T00:17:44.694Z,75.37
2023-03-19T00:20:12.812Z,75.55
2023-03-19T00:22:40.078Z,75.90
2023-03-19T00:25:08.664Z,75.58
2023-03-19T00:27:37.434Z,75.80
2023-03-19T00:30:06.449Z,76.06
2023-03-19T00:32:34.225Z,76.03
2023-03-19T00:35:01.482Z,76.17
2023-03-19T00:37:28.564Z,76.32
2023-03-19T00:39:56.169Z,76.39
2023-03-19T00:42:23.118Z,76.39
2023-03-19T00:44:49.885Z,76.31
2023-03-19T00:47:16.866Z,75.62
2023-03-19T00:49:43.822Z,75.69
2023-03-19T00:52:10.832Z,75.66
2023-03-19T00:54:40.252Z,76.02
2023-03-19T00:57:07.854Z,76.47
2023-03-19T00:59:34.676Z,76.44
2023-03-19T01:02:02.292Z,76.39
2023-03-19T01:04:29.175Z,76.39
2023-03-19T01:06:56.276Z,76.67
2023-03-19T01:09:23.454Z,76.45
2023-03-19T01:11:50.394Z,76.06
2023-03-19T01:14:17.905Z,76.45
2023-03-19T01:16:45.155Z,75.90
2023-03-19T01:19:13.697Z,75.86
2023-03-19T01:21:41.064Z,76.32
2023-03-19T01:24:07.827Z,76.60
2023-03-19T01:26:34.628Z,76.50
2023-03-19T01:29:17.854Z,76.88
2023-03-19T01:31:44.991Z,77.68
2023-03-19T01:34:43.998Z,77.77
2023-03-19T01:37:14.477Z,77.77
2023-03-19T01:39:42.794Z,77.71
2023-03-19T01:42:14.823Z,77.89
2023-03-19T01:44:58.573Z,78.00
2023-03-19T01:47:48.343Z,77.84
2023-03-19T01:50:42.194Z,77.91
2023-03-19T01:53:33.083Z,78.12
2023-03-19T01:56:21.853Z,77.94
2023-03-19T01:59:25.704Z,77.81
2023-03-19T02:02:31.562Z,76.87
2023-03-19T02:05:11.400Z,74.48
2023-03-19T02:07:41.357Z,72.64
2023-03-19T02:10:11.933Z,72.72
2023-03-19T02:12:39.056Z,72.64
2023-03-19T02:15:07.318Z,72.84
2023-03-19T02:17:34.581Z,72.68
2023-03-19T02:20:12.912Z,72.07
2023-03-19T02:22:44.410Z,72.40
2023-03-19T02:25:29.723Z,72.46
2023-03-19T02:27:57.613Z,72.03
2023-03-19T02:30:31.939Z,71.80
2023-03-19T02:33:05.021Z,71.95
2023-03-19T02:35:34.759Z,71.62
2023-03-19T02:38:04.331Z,71.13
2023-03-19T02:40:38.444Z,71.25
2023-03-19T02:43:05.363Z,71.29
2023-03-19T02:45:32.741Z,70.99
2023-03-19T02:48:00.081Z,71.13
2023-03-19T02:50:27.443Z,70.95
2023-03-19T02:52:54.544Z,70.88
2023-03-19T02:55:22.217Z,70.99
2023-03-19T02:57:49.045Z,70.92
2023-03-19T03:00:18.761Z,71.00
2023-03-19T03:02:46.016Z,70.95
2023-03-19T03:05:14.368Z,71.17
2023-03-19T03:07:43.866Z,71.29
2023-03-19T03:10:11.819Z,71.32
2023-03-19T03:12:38.966Z,71.99
2023-03-19T03:15:09.398Z,72.22
2023-03-19T03:17:40.795Z,72.31
2023-03-19T03:20:11.545Z,72.24
2023-03-19T03:22:39.379Z,72.79
2023-03-19T03:25:07.369Z,73.10
2023-03-19T03:27:34.153Z,73.86
2023-03-19T03:30:00.990Z,74.53
2023-03-19T03:32:27.887Z,74.84
2023-03-19T03:34:54.643Z,74.92
2023-03-19T03:37:21.480Z,75.08
2023-03-19T03:39:48.319Z,75.10
2023-03-19T03:42:15.443Z,74.98
2023-03-19T03:44:42.318Z,75.00
2023-03-19T03:47:09.427Z,74.95
2023-03-19T03:49:36.318Z,74.70
2023-03-19T03:52:03.329Z,74.49
2023-03-19T03:54:34.022Z,74.31
2023-03-19T03:57:03.338Z,73.72
2023-03-19T03:59:31.191Z,74.08
2023-03-19T04:01:58.082Z,73.63
2023-03-19T04:04:25.527Z,72.61
2023-03-19T04:06:52.545Z,72.40
2023-03-19T04:09:28.764Z,71.70
2023-03-19T04:11:55.666Z,71.54
2023-03-19T04:14:22.502Z,71.58
2023-03-19T04:16:49.409Z,71.67
2023-03-19T04:19:17.002Z,71.82
2023-03-19T04:21:44.982Z,71.87
2023-03-19T04:24:12.062Z,72.07
2023-03-19T04:26:39.414Z,72.11
2023-03-19T04:29:08.503Z,72.07
2023-03-19T04:31:35.792Z,71.97
2023-03-19T04:34:02.673Z,71.46
2023-03-19T04:36:29.625Z,71.52
2023-03-19T04:38:56.932Z,71.55
2023-03-19T04:41:23.851Z,71.61
2023-03-19T04:44:09.606Z,71.72
2023-03-19T04:46:39.507Z,71.79
2023-03-19T04:49:06.321Z,71.59
2023-03-19T04:51:33.225Z,71.34
2023-03-19T04:54:00.448Z,71.13
2023-03-19T04:56:27.868Z,70.79
2023-03-19T04:58:55.203Z,70.94
2023-03-19T05:01:21.991Z,71.12
2023-03-19T05:04:01.493Z,70.91
2023-03-19T05:06:29.094Z,70.85
2023-03-19T05:08:55.906Z,70.75
2023-03-19T05:11:23.640Z,70.72
2023-03-19T05:14:10.650Z,70.86
2023-03-19T05:16:56.006Z,70.68
2023-03-19T05:19:25.273Z,70.41
2023-03-19T05:21:53.337Z,70.54
2023-03-19T05:24:25.143Z,70.56
2023-03-19T05:26:53.320Z,70.17
2023-03-19T05:29:27.979Z,69.94
2023-03-19T05:32:14.582Z,69.84
2023-03-19T05:34:42.430Z,69.16
2023-03-19T05:37:09.703Z,68.79
2023-03-19T05:39:37.335Z,68.63
2023-03-19T05:42:08.276Z,68.47
2023-03-19T05:44:35.519Z,68.48
2023-03-19T05:47:37.735Z,69.86
2023-03-19T05:50:06.018Z,70.07
2023-03-19T05:52:32.946Z,70.10
2023-03-19T05:55:00.670Z,70.66
2023-03-19T05:57:38.576Z,70.90
2023-03-19T06:00:19.692Z,71.18
2023-03-19T06:02:48.396Z,71.35
2023-03-19T06:05:33.694Z,71.88
2023-03-19T06:08:20.709Z,71.68
2023-03-19T06:11:13.544Z,71.72
2023-03-19T06:13:43.472Z,71.57
2023-03-19T06:16:14.631Z,71.69
2023-03-19T06:18:48.252Z,71.96
2023-03-19T06:21:16.569Z,71.77
2023-03-19T06:23:44.118Z,71.75
2023-03-19T06:26:13.706Z,71.40
2023-03-19T06:28:52.557Z,71.44
2023-03-19T06:31:19.982Z,71.35
2023-03-19T06:33:52.638Z,71.12
2023-03-19T06:36:19.958Z,71.08
2023-03-19T06:38:47.796Z,70.69
2023-03-19T06:41:14.623Z,70.90
2023-03-19T06:43:42.351Z,70.98
2023-03-19T06:46:11.530Z,70.68
2023-03-19T06:48:38.691Z,70.90
2023-03-19T06:51:05.966Z,70.74
2023-03-19T06:53:32.739Z,71.23
2023-03-19T06:55:59.537Z,71.64
2023-03-19T06:58:27.054Z,71.82
2023-03-19T07:00:53.817Z,71.88
2023-03-19T07:03:20.687Z,72.02
2023-03-19T07:05:51.166Z,72.37
2023-03-19T07:08:18.079Z,72.25
2023-03-19T07:10:44.915Z,72.03
2023-03-19T07:13:11.853Z,71.78
2023-03-19T07:15:38.597Z,71.60
2023-03-19T07:18:05.716Z,71.28
2023-03-19T07:20:33.502Z,71.30
2023-03-19T07:23:00.536Z,71.09
2023-03-19T07:25:27.464Z,70.97
2023-03-19T07:27:56.077Z,70.89
2023-03-19T07:30:24.286Z,70.30
2023-03-19T07:32:51.180Z,70.17
2023-03-19T07:35:18.179Z,71.26
2023-03-19T07:37:45.037Z,71.01
2023-03-19T07:40:12.184Z,72.88
2023-03-19T07:42:39.022Z,70.69
2023-03-19T07:45:06.353Z,69.67
2023-03-19T07:47:33.321Z,70.30
2023-03-19T07:50:00.087Z,69.72
2023-03-19T07:52:27.611Z,70.03
2023-03-19T07:54:54.448Z,69.86
2023-03-19T07:57:21.298Z,68.47
2023-03-19T07:59:48.077Z,68.14
2023-03-19T08:02:14.929Z,67.97
2023-03-19T08:04:42.190Z,67.66
2023-03-19T08:07:11.193Z,67.54
2023-03-19T08:09:38.047Z,67.58
2023-03-19T08:12:05.474Z,67.15
2023-03-19T08:14:33.152Z,66.50
2023-03-19T08:17:00.336Z,66.71
2023-03-19T08:19:28.267Z,66.42
2023-03-19T08:21:55.060Z,65.28
2023-03-19T08:24:21.915Z,64.75
2023-03-19T08:26:48.734Z,64.31
2023-03-19T08:29:17.290Z,63.88
2023-03-19T08:31:45.439Z,64.13
2023-03-19T08:34:12.187Z,63.00
2023-03-19T08:36:39.092Z,62.71
2023-03-19T08:39:05.880Z,62.13
2023-03-19T08:41:32.670Z,61.61
2023-03-19T08:43:59.426Z,61.08
2023-03-19T08:46:27.696Z,61.04
2023-03-19T08:48:54.705Z,61.15
2023-03-19T08:51:22.061Z,60.98
2023-03-19T08:53:48.800Z,60.09
2023-03-19T08:56:15.547Z,60.69
2023-03-19T08:58:42.807Z,59.19
2023-03-19T09:01:11.954Z,59.10
2023-03-19T09:03:40.293Z,58.38
2023-03-19T09:06:09.646Z,58.37
2023-03-19T09:08:37.331Z,58.21
2023-03-19T09:11:05.782Z,58.80
2023-03-19T09:13:33.137Z,58.83
2023-03-19T09:16:00.078Z,59.50
2023-03-19T09:18:27.194Z,59.91
2023-03-19T09:20:54.594Z,59.90
2023-03-19T09:23:22.350Z,59.75
2023-03-19T09:25:49.586Z,59.39
2023-03-19T09:28:16.753Z,59.43
2023-03-19T09:30:46.825Z,58.92
2023-03-19T09:33:14.209Z,58.78
2023-03-19T09:35:41.014Z,58.48
2023-03-19T09:38:08.097Z,58.10
2023-03-19T09:40:47.147Z,56.55
2023-03-19T09:43:38.708Z,56.59
2023-03-19T09:46:13.808Z,56.29
2023-03-19T09:48:48.437Z,56.32
2023-03-19T09:51:22.469Z,55.99
2023-03-19T09:54:04.544Z,56.01
2023-03-19T09:56:32.689Z,55.66
2023-03-19T09:58:59.930Z,56.86
2023-03-19T10:01:41.481Z,55.46
2023-03-19T10:04:42.594Z,55.20
2023-03-19T10:07:52.681Z,54.90
2023-03-19T10:10:31.210Z,54.18
2023-03-19T10:13:31.903Z,54.10
2023-03-19T10:16:01.623Z,53.61
2023-03-19T10:18:34.677Z,53.13
2023-03-19T10:21:20.146Z,53.34
2023-03-19T10:24:05.052Z,52.85
2023-03-19T10:26:35.884Z,53.32
2023-03-19T10:29:16.566Z,53.18
2023-03-19T10:32:07.531Z,52.90
2023-03-19T10:34:37.806Z,53.17
2023-03-19T10:37:13.579Z,53.15
2023-03-19T10:39:43.189Z,52.95
2023-03-19T10:42:39.415Z,52.88
2023-03-19T10:45:15.314Z,52.27
2023-03-19T10:47:43.832Z,52.15
2023-03-19T10:50:19.568Z,52.12
2023-03-19T10:52:51.748Z,51.04
2023-03-19T10:55:25.395Z,50.44
2023-03-19T10:58:03.206Z,50.52
2023-03-19T11:00:35.433Z,50.26
2023-03-19T11:03:05.604Z,50.16
2023-03-19T11:05:34.873Z,49.54
2023-03-19T11:08:03.489Z,49.82
2023-03-19T11:10:33.897Z,49.60
2023-03-19T11:13:06.218Z,49.47
2023-03-19T11:15:37.488Z,50.10
2023-03-19T11:18:44.786Z,50.43
2023-03-19T11:21:31.099Z,50.96
2023-03-19T11:24:03.336Z,50.38
2023-03-19T11:26:31.019Z,50.67
2023-03-19T11:29:04.693Z,50.72
2023-03-19T11:31:50.627Z,50.59
2023-03-19T11:34:41.517Z,50.62
2023-03-19T11:37:29.822Z,50.61
2023-03-19T11:40:02.057Z,51.95
2023-03-19T11:42:50.292Z,51.90
2023-03-19T11:45:26.333Z,52.05
2023-03-19T11:48:06.018Z,51.67
2023-03-19T11:50:35.905Z,51.17
2023-03-19T11:53:27.589Z,53.42
2023-03-19T11:56:15.251Z,53.90
2023-03-19T11:59:01.163Z,53.58
2023-03-19T12:01:39.738Z,52.13
2023-03-19T12:04:45.944Z,52.46
2023-03-19T12:07:43.270Z,54.33
2023-03-19T12:10:48.196Z,53.62
2023-03-19T12:13:25.723Z,54.30
2023-03-19T12:16:16.373Z,54.61
2023-03-19T12:18:57.160Z,55.10
2023-03-19T12:21:24.166Z,54.55
2023-03-19T12:24:04.449Z,56.55
2023-03-19T12:27:00.382Z,56.75
2023-03-19T12:29:45.223Z,55.05
2023-03-19T12:32:35.470Z,53.99
2023-03-19T12:35:09.134Z,53.59
2023-03-19T12:38:01.485Z,53.05
2023-03-19T12:40:37.421Z,52.98
2023-03-19T12:43:14.437Z,53.80
2023-03-19T12:45:58.182Z,51.65
2023-03-19T12:49:09.985Z,51.23
2023-03-19T12:51:45.566Z,52.40
2023-03-19T12:54:18.906Z,52.27
2023-03-19T12:56:51.188Z,52.32
2023-03-19T12:59:30.273Z,52.64
2023-03-19T13:02:11.446Z,52.22
2023-03-19T13:04:53.323Z,51.14
2023-03-19T13:07:40.498Z,51.91
2023-03-19T13:10:17.750Z,51.11
2023-03-19T13:12:46.429Z,51.66
2023-03-19T13:15:22.303Z,52.58
2023-03-19T13:17:55.679Z,52.29
2023-03-19T13:20:44.294Z,52.91
2023-03-19T13:23:24.561Z,52.52
2023-03-19T13:25:54.664Z,52.91
2023-03-19T13:28:31.214Z,53.11
2023-03-19T13:31:05.172Z,51.79
2023-03-19T13:33:35.150Z,53.03
2023-03-19T13:36:05.456Z,54.36
2023-03-19T13:38:41.462Z,53.02
2023-03-19T13:41:39.196Z,53.27
2023-03-19T13:44:32.395Z,53.13
2023-03-19T13:47:23.122Z,52.81
2023-03-19T13:50:10.890Z,53.81
2023-03-19T13:52:46.602Z,53.20
2023-03-19T13:55:28.350Z,53.90
2023-03-19T13:58:16.685Z,55.23
2023-03-19T14:00:43.498Z,56.08
2023-03-19T14:03:22.488Z,57.03
2023-03-19T14:05:53.611Z,56.73
2023-03-19T14:08:24.370Z,57.10
2023-03-19T14:10:54.515Z,57.03
2023-03-19T14:13:34.463Z,57.27
2023-03-19T14:16:17.840Z,56.28
2023-03-19T14:18:44.944Z,56.03
2023-03-19T14:21:18.932Z,56.62
2023-03-19T14:23:55.019Z,56.32
2023-03-19T14:26:29.324Z,56.61
2023-03-19T14:29:04.295Z,57.16
2023-03-19T14:31:33.935Z,57.17
2023-03-19T14:34:19.326Z,58.09
2023-03-19T14:36:54.873Z,57.24
2023-03-19T14:39:25.340Z,58.41
2023-03-19T14:42:15.447Z,57.93
2023-03-19T14:45:14.492Z,58.69
2023-03-19T14:47:50.595Z,57.93
2023-03-19T14:50:35.775Z,58.84
2023-03-19T14:53:15.033Z,59.51
2023-03-19T14:55:42.756Z,59.76
2023-03-19T14:58:12.972Z,59.92
2023-03-19T15:00:49.735Z,60.06
2023-03-19T15:03:33.073Z,59.31
2023-03-19T15:06:02.702Z,59.52
2023-03-19T15:08:32.424Z,59.63
2023-03-19T15:11:14.509Z,59.18
2023-03-19T15:14:16.481Z,58.79
2023-03-19T15:16:46.558Z,58.37
2023-03-19T15:19:17.576Z,58.29
2023-03-19T15:21:44.393Z,57.94
2023-03-19T15:24:16.605Z,58.08
2023-03-19T15:26:43.901Z,57.83
2023-03-19T15:29:13.786Z,57.49
2023-03-19T15:31:57.577Z,57.65
2023-03-19T15:34:31.316Z,57.66
2023-03-19T15:37:04.325Z,57.81
2023-03-19T15:39:38.028Z,57.26
2023-03-19T15:42:05.812Z,56.83
2023-03-19T15:44:58.587Z,57.58
2023-03-19T15:47:31.132Z,58.11
2023-03-19T15:50:12.667Z,57.88
2023-03-19T15:52:43.107Z,57.66
2023-03-19T15:55:12.688Z,57.33
2023-03-19T15:57:41.314Z,57.62
2023-03-19T16:00:10.071Z,57.57
2023-03-19T16:02:46.828Z,57.84
2023-03-19T16:05:24.165Z,57.75
2023-03-19T16:07:59.880Z,58.08
2023-03-19T16:10:40.423Z,58.32
2023-03-19T16:13:24.232Z,58.71
2023-03-19T16:16:08.627Z,59.32
2023-03-19T16:18:53.063Z,59.21
2023-03-19T16:21:21.936Z,59.28
2023-03-19T16:23:54.288Z,59.73
2023-03-19T16:26:25.714Z,59.31
2023-03-19T16:28:59.819Z,59.49
2023-03-19T16:31:29.870Z,59.94
2023-03-19T16:33:57.064Z,59.79
2023-03-19T16:36:27.802Z,59.40
2023-03-19T16:38:58.969Z,59.59
2023-03-19T16:41:25.764Z,59.30
2023-03-19T16:43:53.850Z,58.84
2023-03-19T16:46:20.766Z,58.95
2023-03-19T16:48:47.496Z,59.06
2023-03-19T16:51:18.398Z,58.59
2023-03-19T16:53:47.089Z,58.98
2023-03-19T16:56:15.980Z,59.43
2023-03-19T16:58:46.549Z,58.98
2023-03-19T17:01:18.037Z,58.73
2023-03-19T17:03:47.071Z,58.63
2023-03-19T17:06:14.982Z,58.95
2023-03-19T17:08:42.431Z,59.60
2023-03-19T17:11:31.059Z,59.87
2023-03-19T17:13:59.286Z,61.14
2023-03-19T17:16:27.620Z,60.90
2023-03-19T17:18:54.937Z,61.01
2023-03-19T17:21:25.218Z,61.40
2023-03-19T17:23:52.203Z,61.52
2023-03-19T17:26:27.824Z,62.06
2023-03-19T17:28:56.085Z,62.60
2023-03-19T17:31:31.782Z,63.25
2023-03-19T17:34:12.834Z,62.90
2023-03-19T17:36:39.983Z,62.84
2023-03-19T17:39:07.801Z,62.84
2023-03-19T17:41:35.687Z,63.29
2023-03-19T17:44:05.092Z,63.15
2023-03-19T17:46:38.144Z,63.61
2023-03-19T17:49:05.333Z,64.37
2023-03-19T17:51:32.132Z,64.62
2023-03-19T17:53:59.088Z,64.82
2023-03-19T17:56:26.199Z,64.88
2023-03-19T17:58:53.722Z,64.76
2023-03-19T18:01:23.376Z,65.34
2023-03-19T18:03:51.927Z,65.45
2023-03-19T18:06:21.700Z,65.87
2023-03-19T18:08:48.796Z,66.52
2023-03-19T18:11:15.728Z,66.25
2023-03-19T18:13:43.056Z,67.27
2023-03-19T18:16:29.952Z,66.84
2023-03-19T18:19:01.122Z,67.38
2023-03-19T18:21:29.012Z,67.38
2023-03-19T18:23:57.406Z,67.13
2023-03-19T18:26:25.431Z,67.39
2023-03-19T18:28:52.254Z,67.16
2023-03-19T18:31:24.160Z,67.54
2023-03-19T18:33:55.314Z,67.58
2023-03-19T18:36:28.379Z,67.79
2023-03-19T18:38:55.830Z,67.61
2023-03-19T18:41:24.654Z,67.33
2023-03-19T18:44:12.409Z,67.60
2023-03-19T18:46:40.900Z,67.82
2023-03-19T18:49:28.631Z,67.82
2023-03-19T18:52:02.775Z,68.04
2023-03-19T18:54:31.517Z,67.72
2023-03-19T18:57:00.264Z,66.87
2023-03-19T18:59:32.713Z,66.99
2023-03-19T19:02:12.093Z,67.99
2023-03-19T19:04:38.937Z,67.88
2023-03-19T19:07:07.084Z,68.58
2023-03-19T19:09:33.879Z,68.46
2023-03-19T19:12:02.057Z,68.20
2023-03-19T19:14:28.826Z,67.15
2023-03-19T19:16:57.041Z,66.99
2023-03-19T19:19:25.906Z,66.61
2023-03-19T19:21:53.045Z,66.42
2023-03-19T19:24:21.048Z,66.22
2023-03-19T19:26:53.370Z,66.13
2023-03-19T19:29:29.637Z,66.21
2023-03-19T19:31:56.623Z,65.97
2023-03-19T19:34:23.703Z,65.82
2023-03-19T19:36:51.244Z,65.64
2023-03-19T19:39:18.453Z,65.80
2023-03-19T19:41:46.698Z,65.65
2023-03-19T19:44:20.835Z,66.16
2023-03-19T19:46:47.895Z,65.88
2023-03-19T19:49:15.242Z,65.99
2023-03-19T19:51:42.050Z,66.21
2023-03-19T19:54:08.928Z,66.39
2023-03-19T19:56:36.462Z,66.53
2023-03-19T19:59:06.711Z,66.38
2023-03-19T20:01:33.486Z,66.44
2023-03-19T20:04:00.401Z,66.70
2023-03-19T20:06:27.639Z,67.27
2023-03-19T20:08:55.906Z,67.58
2023-03-19T20:11:24.580Z,69.29
2023-03-19T20:13:55.639Z,69.54
2023-03-19T20:16:25.954Z,70.31
2023-03-19T20:18:54.757Z,70.53
2023-03-19T20:21:22.750Z,70.41
2023-03-19T20:23:53.115Z,70.11
2023-03-19T20:26:22.477Z,70.14
2023-03-19T20:28:50.787Z,69.69
2023-03-19T20:31:25.059Z,69.64
2023-03-19T20:33:52.048Z,69.57
2023-03-19T20:36:19.618Z,69.34
2023-03-19T20:38:46.742Z,69.03
2023-03-19T20:41:29.032Z,68.91
2023-03-19T20:43:56.705Z,68.80
2023-03-19T20:46:24.700Z,67.70
2023-03-19T20:48:51.872Z,67.21
2023-03-19T20:51:23.126Z,66.31
2023-03-19T20:53:51.340Z,65.76
2023-03-19T20:56:22.136Z,66.29
2023-03-19T20:58:49.457Z,67.63
2023-03-19T21:01:17.769Z,68.11
2023-03-19T21:03:44.718Z,67.69
2023-03-19T21:06:22.771Z,68.10
2023-03-19T21:08:57.664Z,68.14
2023-03-19T21:11:40.871Z,68.20
2023-03-19T21:14:16.283Z,68.29
2023-03-19T21:16:43.063Z,68.15
2023-03-19T21:19:09.855Z,68.24
2023-03-19T21:21:38.831Z,68.01
2023-03-19T21:24:14.515Z,68.04
2023-03-19T21:26:42.559Z,68.14
2023-03-19T21:29:19.966Z,67.94
2023-03-19T21:31:47.901Z,68.38
2023-03-19T21:34:14.964Z,68.82
2023-03-19T21:36:41.849Z,68.47
2023-03-19T21:39:08.572Z,67.36
2023-03-19T21:41:36.632Z,66.97
2023-03-19T21:44:07.549Z,66.49
2023-03-19T21:46:35.166Z,66.97
2023-03-19T21:49:01.979Z,66.54
2023-03-19T21:51:29.534Z,65.96
2023-03-19T21:53:56.612Z,65.80
2023-03-19T21:56:33.457Z,65.93
2023-03-19T21:59:03.582Z,66.47
2023-03-19T22:01:30.465Z,67.15
2023-03-19T22:03:57.909Z,67.22
2023-03-19T22:06:25.786Z,66.91
2023-03-19T22:08:54.165Z,66.22
2023-03-19T22:11:32.694Z,66.36
2023-03-19T22:14:19.661Z,66.14
2023-03-19T22:16:47.780Z,65.69
2023-03-19T22:19:17.681Z,65.89
2023-03-19T22:21:44.855Z,65.69
2023-03-19T22:24:11.745Z,65.64
2023-03-19T22:26:40.848Z,66.03
2023-03-19T22:29:20.682Z,65.93
2023-03-19T22:31:52.157Z,65.78
2023-03-19T22:34:22.178Z,66.12
2023-03-19T22:36:49.663Z,66.14
2023-03-19T22:39:16.560Z,66.16
2023-03-19T22:41:46.629Z,65.89
2023-03-19T22:44:23.004Z,66.20
2023-03-19T22:46:50.253Z,66.11
2023-03-19T22:49:17.474Z,65.99
2023-03-19T22:51:44.236Z,65.89
2023-03-19T22:54:14.175Z,66.02
2023-03-19T22:56:41.075Z,66.16
2023-03-19T22:59:07.819Z,66.14
2023-03-19T23:01:43.551Z,66.13
2023-03-19T23:04:21.244Z,66.32
2023-03-19T23:06:49.441Z,66.21
2023-03-19T23:09:29.506Z,66.19
2023-03-19T23:11:57.831Z,66.59
2023-03-19T23:14:32.134Z,66.57
2023-03-19T23:17:10.302Z,66.59
2023-03-19T23:19:38.498Z,66.69
2023-03-19T23:22:07.486Z,66.69
2023-03-19T23:24:34.809Z,66.79
2023-03-19T23:27:02.459Z,66.94
2023-03-19T23:29:34.932Z,67.02
2023-03-19T23:32:01.942Z,67.03
2023-03-19T23:34:28.899Z,66.95
2023-03-19T23:36:56.754Z,67.06
2023-03-19T23:39:24.085Z,66.96
2023-03-19T23:41:54.659Z,66.94
2023-03-19T23:44:22.063Z,67.21
2023-03-19T23:46:50.810Z,67.30
2023-03-19T23:49:30.295Z,67.27
2023-03-19T23:51:57.557Z,67.21
2023-03-19T23:54:28.379Z,67.20
2023-03-19T23:56:59.935Z,67.11
2023-03-19T23:59:35.744Z,67.25
